Time;durP1;ratioP1;P1;durP2;ratioP2;P2;SDS_P1;SDS_P2;PMS_P1;PMS_P2;Temp;Humidity;BMP_temperature;BMP_pressure;BME280_temperature;BME280_humidity;BME280_pressure;Samples;Min_cycle;Max_cycle;Signal;HPM_P1;HPM_P2
2022/03/21 00:01:33;;;;;;;36.00;33.07;;;;;;;;;;4955649;29;20459;-85
2022/03/21 00:04:00;;;;;;;35.90;33.00;;;;;;;;;;4955278;29;20458;-84
2022/03/21 00:06:27;;;;;;;35.80;32.93;;;;;;;;;;4955564;29;20443;-85
2022/03/21 00:08:55;;;;;;;36.70;33.90;;;;;;;;;;4955540;29;20427;-84
2022/03/21 00:11:24;;;;;;;36.40;33.60;;;;;;;;;;4955531;28;20442;-84
2022/03/21 00:13:53;;;;;;;35.00;32.37;;;;;;;;;;4954743;29;20471;-85
2022/03/21 00:16:21;;;;;;;37.57;34.30;;;;;;;;;;4955639;29;20468;-84
2022/03/21 00:18:49;;;;;;;36.30;33.20;;;;;;;;;;4955224;29;20459;-85
2022/03/21 00:21:17;;;;;;;36.10;33.03;;;;;;;;;;4955039;29;20458;-85
2022/03/21 00:23:45;;;;;;;36.67;33.77;;;;;;;;;;4955229;29;21018;-85
2022/03/21 00:26:12;;;;;;;37.20;34.20;;;;;;;;;;4954878;28;20450;-85
2022/03/21 00:28:41;;;;;;;36.63;33.27;;;;;;;;;;4955202;29;20824;-85
2022/03/21 00:31:08;;;;;;;37.03;33.63;;;;;;;;;;4955116;29;20448;-85
2022/03/21 00:33:36;;;;;;;36.17;33.30;;;;;;;;;;4955458;29;20788;-85
2022/03/21 00:36:05;;;;;;;36.10;33.40;;;;;;;;;;4955305;29;20465;-84
2022/03/21 00:38:34;;;;;;;35.50;32.80;;;;;;;;;;4955267;29;20466;-84
2022/03/21 00:41:02;;;;;;;36.13;33.30;;;;;;;;;;4954866;29;20455;-85
2022/03/21 00:43:30;;;;;;;35.30;32.50;;;;;;;;;;4954974;29;20470;-84
2022/03/21 00:46:00;;;;;;;36.30;33.60;;;;;;;;;;4954978;29;20460;-85
2022/03/21 00:48:28;;;;;;;36.63;33.73;;;;;;;;;;4954830;29;20475;-85
2022/03/21 00:50:56;;;;;;;37.43;34.50;;;;;;;;;;4954840;29;20966;-84
2022/03/21 00:53:24;;;;;;;36.73;33.77;;;;;;;;;;4954978;29;20426;-84
2022/03/21 00:55:52;;;;;;;37.87;34.90;;;;;;;;;;4954912;29;20436;-85
2022/03/21 00:58:20;;;;;;;39.67;36.27;;;;;;;;;;4954496;29;20504;-84
2022/03/21 01:00:47;;;;;;;36.60;33.80;;;;;;;;;;4954682;29;20470;-84
2022/03/21 01:03:16;;;;;;;37.50;34.20;;;;;;;;;;4954968;29;20473;-84
2022/03/21 01:05:43;;;;;;;36.67;33.70;;;;;;;;;;4954747;29;20447;-84
2022/03/21 01:08:11;;;;;;;35.57;32.73;;;;;;;;;;4954964;29;20495;-85
2022/03/21 01:10:38;;;;;;;36.23;33.53;;;;;;;;;;4954875;29;20452;-84
2022/03/21 01:13:06;;;;;;;37.27;34.37;;;;;;;;;;4954762;29;20432;-84
2022/03/21 01:15:34;;;;;;;36.63;33.67;;;;;;;;;;4954418;29;20440;-84
2022/03/21 01:18:01;;;;;;;36.93;33.93;;;;;;;;;;4954645;29;20448;-84
2022/03/21 01:20:30;;;;;;;36.70;33.60;;;;;;;;;;4954253;29;20872;-85
2022/03/21 01:22:57;;;;;;;38.50;35.17;;;;;;;;;;4954651;29;20423;-84
2022/03/21 01:25:25;;;;;;;37.63;34.60;;;;;;;;;;4956773;28;20411;-84
2022/03/21 01:27:53;;;;;;;36.93;34.13;;;;;;;;;;4958073;29;20442;-85
2022/03/21 01:30:21;;;;;;;36.40;33.60;;;;;;;;;;4941479;29;20850;-84
2022/03/21 01:32:48;;;;;;;37.93;34.90;;;;;;;;;;4958231;29;20435;-84
2022/03/21 01:35:17;;;;;;;35.37;32.57;;;;;;;;;;4958123;29;20854;-84
2022/03/21 01:37:46;;;;;;;36.73;33.83;;;;;;;;;;4958318;29;20443;-83
2022/03/21 01:40:14;;;;;;;37.10;34.33;;;;;;;;;;4957968;29;20474;-85
2022/03/21 01:42:43;;;;;;;36.00;33.10;;;;;;;;;;4958177;29;20433;-84
2022/03/21 01:45:11;;;;;;;36.57;33.80;;;;;;;;;;4957764;29;20410;-84
2022/03/21 01:47:38;;;;;;;36.37;33.27;;;;;;;;;;4957894;29;20439;-84
2022/03/21 01:50:07;;;;;;;36.50;33.50;;;;;;;;;;4958098;29;20438;-83
2022/03/21 01:52:36;;;;;;;36.50;33.40;;;;;;;;;;4958307;29;20426;-82
2022/03/21 01:57:51;;;;;;;35.47;32.57;;;;;;;;;;4957648;29;20870;-84
2022/03/21 02:00:18;;;;;;;36.97;34.07;;;;;;;;;;4957290;29;20554;-84
2022/03/21 02:02:45;;;;;;;37.43;34.43;;;;;;;;;;4957818;29;20419;-84
2022/03/21 02:05:13;;;;;;;37.87;34.83;;;;;;;;;;4957708;29;20459;-84
2022/03/21 02:07:40;;;;;;;36.17;33.20;;;;;;;;;;4957530;29;20832;-84
2022/03/21 02:10:09;;;;;;;34.87;32.20;;;;;;;;;;4957837;29;20448;-84
2022/03/21 02:12:37;;;;;;;37.07;34.17;;;;;;;;;;4957660;29;20424;-84
2022/03/21 02:15:05;;;;;;;36.10;33.40;;;;;;;;;;4957318;29;20477;-84
2022/03/21 02:17:35;;;;;;;37.77;34.70;;;;;;;;;;4956972;29;20448;-84
2022/03/21 02:20:03;;;;;;;36.20;33.20;;;;;;;;;;4939591;29;20885;-84
2022/03/21 02:22:34;;;;;;;36.83;34.00;;;;;;;;;;4939721;29;20516;-84
2022/03/21 02:25:07;;;;;;;36.00;33.10;;;;;;;;;;4957138;29;20776;-84
2022/03/21 02:27:36;;;;;;;36.93;34.13;;;;;;;;;;4956692;28;20475;-83
2022/03/21 02:30:04;;;;;;;35.90;33.10;;;;;;;;;;4939871;29;20452;-84
2022/03/21 02:32:32;;;;;;;37.00;33.83;;;;;;;;;;4957473;29;20443;-85
2022/03/21 02:35:00;;;;;;;36.90;33.23;;;;;;;;;;4956913;28;20452;-84
2022/03/21 02:37:28;;;;;;;36.10;33.00;;;;;;;;;;4957212;29;20418;-84
2022/03/21 02:39:56;;;;;;;35.10;32.20;;;;;;;;;;4956877;29;20538;-85
2022/03/21 02:42:24;;;;;;;33.73;31.13;;;;;;;;;;4957146;29;20451;-84
2022/03/21 02:44:52;;;;;;;37.27;34.00;;;;;;;;;;4956969;29;20807;-84
2022/03/21 02:47:20;;;;;;;34.47;31.77;;;;;;;;;;4956759;29;20840;-85
2022/03/21 02:49:47;;;;;;;85.60;77.00;;;;;;;;;;4956864;29;20411;-85
2022/03/21 02:52:16;;;;;;;36.47;33.60;;;;;;;;;;4957050;29;20858;-85
2022/03/21 02:54:43;;;;;;;34.10;31.40;;;;;;;;;;4956779;29;20452;-84
2022/03/21 02:57:11;;;;;;;36.00;32.90;;;;;;;;;;4956865;29;20444;-85
2022/03/21 02:59:38;;;;;;;36.47;33.50;;;;;;;;;;4956601;29;20466;-85
2022/03/21 03:02:08;;;;;;;36.10;33.10;;;;;;;;;;4956840;29;20448;-85
2022/03/21 03:04:35;;;;;;;34.40;31.60;;;;;;;;;;4939928;29;20548;-84
2022/03/21 03:07:02;;;;;;;35.27;32.20;;;;;;;;;;4956657;29;20433;-85
2022/03/21 03:09:30;;;;;;;33.50;30.87;;;;;;;;;;4956592;29;20439;-84
2022/03/21 03:11:57;;;;;;;33.83;31.23;;;;;;;;;;4956404;29;20455;-85
2022/03/21 03:14:24;;;;;;;36.60;33.70;;;;;;;;;;4956151;29;20468;-85
2022/03/21 03:16:51;;;;;;;34.37;31.60;;;;;;;;;;4956549;29;20422;-85
2022/03/21 03:19:20;;;;;;;35.80;32.37;;;;;;;;;;4956281;29;20486;-84
2022/03/21 03:21:48;;;;;;;35.47;32.50;;;;;;;;;;4956239;29;20438;-85
2022/03/21 03:24:17;;;;;;;35.80;33.00;;;;;;;;;;4956494;29;20444;-85
2022/03/21 03:26:44;;;;;;;35.47;32.13;;;;;;;;;;4956194;28;20956;-84
2022/03/21 03:29:11;;;;;;;37.47;34.30;;;;;;;;;;4939104;29;20445;-85
2022/03/21 03:31:39;;;;;;;35.57;32.50;;;;;;;;;;4956107;29;20448;-84
2022/03/21 03:34:06;;;;;;;34.47;31.80;;;;;;;;;;4956298;29;20419;-84
2022/03/21 03:36:35;;;;;;;35.17;32.03;;;;;;;;;;4955996;29;20439;-85
2022/03/21 03:39:03;;;;;;;43.30;39.90;;;;;;;;;;4955758;29;20510;-84
2022/03/21 03:41:31;;;;;;;44.80;41.57;;;;;;;;;;4939317;29;20440;-84
2022/03/21 03:43:58;;;;;;;60.20;55.97;;;;;;;;;;4955714;29;20444;-85
2022/03/21 03:46:26;;;;;;;121.23;108.00;;;;;;;;;;4955509;28;20444;-86
2022/03/21 03:48:54;;;;;;;34.60;31.87;;;;;;;;;;4955682;29;21030;-85
2022/03/21 03:51:21;;;;;;;156.23;96.18;;;;;;;;;;4955835;29;20501;-85
2022/03/21 03:53:50;;;;;;;132.33;114.17;;;;;;;;;;4955913;29;20192;-85
2022/03/21 03:56:17;;;;;;;39.27;36.27;;;;;;;;;;4955902;29;20444;-84
2022/03/21 03:58:45;;;;;;;34.67;31.87;;;;;;;;;;4955426;29;20414;-84
2022/03/21 04:01:12;;;;;;;34.47;31.70;;;;;;;;;;4939289;29;20770;-85
2022/03/21 04:03:46;;;;;;;213.52;135.68;;;;;;;;;;4955693;29;20414;-85
2022/03/21 04:06:14;;;;;;;35.73;32.97;;;;;;;;;;4938477;29;20651;-83
2022/03/21 04:08:41;;;;;;;203.63;130.00;;;;;;;;;;4955613;29;20422;-85
2022/03/21 04:11:10;;;;;;;42.23;39.03;;;;;;;;;;4955756;29;20203;-85
2022/03/21 04:13:38;;;;;;;33.35;30.85;;;;;;;;;;4955593;29;20426;-85
2022/03/21 04:16:05;;;;;;;34.33;31.73;;;;;;;;;;4955517;29;20189;-85
2022/03/21 04:18:33;;;;;;;35.27;32.67;;;;;;;;;;4955684;29;20418;-85
2022/03/21 04:21:00;;;;;;;348.63;183.75;;;;;;;;;;4955103;29;20481;-85
2022/03/21 04:23:27;;;;;;;123.73;111.60;;;;;;;;;;4938732;29;20211;-85
2022/03/21 04:25:55;;;;;;;36.03;33.10;;;;;;;;;;4955533;28;20976;-85
2022/03/21 04:28:24;;;;;;;218.48;128.77;;;;;;;;;;4955522;29;20440;-85
2022/03/21 04:30:51;;;;;;;284.05;142.48;;;;;;;;;;4955624;29;20199;-86
2022/03/21 04:33:19;;;;;;;35.23;32.43;;;;;;;;;;4954830;29;20204;-85
2022/03/21 04:35:46;;;;;;;36.10;33.30;;;;;;;;;;4955320;29;20422;-85
2022/03/21 04:38:14;;;;;;;32.50;30.10;;;;;;;;;;4954940;29;20893;-84
2022/03/21 04:40:42;;;;;;;34.70;31.80;;;;;;;;;;4954936;29;20542;-84
2022/03/21 04:43:10;;;;;;;34.30;31.50;;;;;;;;;;4954975;29;20926;-85
2022/03/21 04:45:39;;;;;;;33.43;30.83;;;;;;;;;;4937825;29;20486;-85
2022/03/21 04:48:06;;;;;;;34.30;31.70;;;;;;;;;;4954968;29;20495;-85
2022/03/21 04:50:34;;;;;;;32.40;30.00;;;;;;;;;;4954695;29;20434;-83
2022/03/21 04:53:01;;;;;;;35.33;32.53;;;;;;;;;;4955190;29;20940;-84
2022/03/21 04:55:29;;;;;;;33.17;30.57;;;;;;;;;;4954820;29;20526;-84
2022/03/21 04:57:56;;;;;;;33.50;30.70;;;;;;;;;;4955116;28;20451;-84
2022/03/21 05:00:24;;;;;;;33.50;30.80;;;;;;;;;;4958789;29;20473;-84
2022/03/21 05:02:53;;;;;;;33.23;30.63;;;;;;;;;;4958662;29;20410;-85
2022/03/21 05:05:20;;;;;;;34.23;31.50;;;;;;;;;;4958506;29;20451;-84
2022/03/21 05:07:52;;;;;;;33.38;30.77;;;;;;;;;;4958488;29;20807;-85
2022/03/21 05:10:20;;;;;;;37.95;34.92;;;;;;;;;;4958797;29;20199;-84
2022/03/21 05:12:47;;;;;;;32.63;30.13;;;;;;;;;;4958734;29;20200;-85
2022/03/21 05:15:15;;;;;;;33.28;30.67;;;;;;;;;;4958458;29;20451;-84
2022/03/21 05:17:43;;;;;;;34.70;31.90;;;;;;;;;;4941320;29;20200;-84
2022/03/21 05:20:15;;;;;;;35.15;31.92;;;;;;;;;;4958242;29;20503;-85
2022/03/21 05:22:43;;;;;;;34.83;31.93;;;;;;;;;;4958299;29;20283;-85
2022/03/21 05:30:59;;;;;;;65.35;58.53;;;;;;;;;;4958566;29;20430;-84
2022/03/21 05:36:12;;;;;;;35.58;32.25;;;;;;;;;;4958132;29;20406;-85
2022/03/21 05:38:40;;;;;;;33.20;30.65;;;;;;;;;;4958353;29;20247;-85
2022/03/21 05:41:07;;;;;;;33.73;31.03;;;;;;;;;;4958082;29;20227;-84
2022/03/21 05:43:35;;;;;;;34.45;31.85;;;;;;;;;;4957809;29;20451;-84
2022/03/21 05:46:04;;;;;;;33.78;31.17;;;;;;;;;;4958101;29;20208;-85
2022/03/21 05:51:19;;;;;;;34.97;32.27;;;;;;;;;;4957821;29;20475;-85
2022/03/21 05:53:46;;;;;;;35.10;32.30;;;;;;;;;;4958010;29;20442;-84
2022/03/21 05:56:14;;;;;;;34.50;31.80;;;;;;;;;;4957633;29;20208;-83
2022/03/21 05:58:41;;;;;;;34.88;31.55;;;;;;;;;;4940531;29;20454;-84
2022/03/21 06:01:10;;;;;;;34.20;31.33;;;;;;;;;;4940588;29;20227;-83
2022/03/21 06:03:38;;;;;;;35.75;32.83;;;;;;;;;;4957653;29;20204;-85
2022/03/21 06:06:05;;;;;;;35.50;32.70;;;;;;;;;;4957311;29;20639;-84
2022/03/21 06:08:34;;;;;;;35.13;32.33;;;;;;;;;;4957250;29;20451;-85
2022/03/21 06:11:04;;;;;;;36.30;33.28;;;;;;;;;;4956535;28;20563;-83
2022/03/21 06:13:33;;;;;;;36.20;33.37;;;;;;;;;;4957140;29;20200;-84
2022/03/21 06:16:03;;;;;;;36.37;33.33;;;;;;;;;;4956996;29;20514;-83
2022/03/21 06:18:30;;;;;;;34.70;31.80;;;;;;;;;;4957191;29;20943;-83
2022/03/21 06:20:58;;;;;;;33.90;31.05;;;;;;;;;;4956612;29;20661;-83
2022/03/21 06:23:25;;;;;;;34.07;31.27;;;;;;;;;;4957039;29;20214;-83
2022/03/21 06:25:54;;;;;;;33.80;31.07;;;;;;;;;;4956594;28;20450;-83
2022/03/21 06:28:22;;;;;;;34.88;32.13;;;;;;;;;;4956730;29;20407;-83
2022/03/21 06:30:51;;;;;;;34.97;32.13;;;;;;;;;;4956662;29;20247;-83
2022/03/21 06:33:19;;;;;;;35.17;32.17;;;;;;;;;;4957086;29;20192;-83
2022/03/21 06:35:46;;;;;;;33.33;30.67;;;;;;;;;;4956599;29;20431;-83
2022/03/21 06:38:13;;;;;;;35.67;32.87;;;;;;;;;;4957138;29;20444;-84
2022/03/21 06:40:42;;;;;;;34.88;31.98;;;;;;;;;;4956771;29;20975;-84
2022/03/21 06:43:10;;;;;;;35.47;32.37;;;;;;;;;;4939221;29;20315;-84
2022/03/21 06:45:38;;;;;;;35.10;32.28;;;;;;;;;;4957266;29;20475;-84
2022/03/21 06:48:06;;;;;;;35.10;32.33;;;;;;;;;;4957003;29;20208;-84
2022/03/21 06:50:33;;;;;;;37.28;33.97;;;;;;;;;;4956920;29;20458;-84
2022/03/21 06:53:00;;;;;;;33.33;30.63;;;;;;;;;;4956614;29;20582;-84
2022/03/21 06:55:28;;;;;;;34.40;31.50;;;;;;;;;;4956539;29;20503;-84
2022/03/21 06:57:55;;;;;;;35.25;32.28;;;;;;;;;;4956887;29;20426;-83
2022/03/21 07:00:24;;;;;;;36.10;33.10;;;;;;;;;;4956964;29;20223;-84
2022/03/21 07:02:51;;;;;;;34.73;32.13;;;;;;;;;;4957700;29;20480;-84
2022/03/21 07:05:19;;;;;;;333.33;135.30;;;;;;;;;;4957491;29;20441;-84
2022/03/21 07:07:47;;;;;;;34.07;31.57;;;;;;;;;;4956373;29;20232;-84
2022/03/21 07:10:15;;;;;;;37.00;33.90;;;;;;;;;;4956526;29;20471;-85
2022/03/21 07:12:42;;;;;;;287.27;122.10;;;;;;;;;;4956182;29;20901;-84
2022/03/21 07:15:10;;;;;;;287.25;119.63;;;;;;;;;;4963666;28;20199;-85
2022/03/21 07:17:38;;;;;;;34.80;32.00;;;;;;;;;;4975719;28;20646;-84
2022/03/21 07:20:06;;;;;;;325.90;124.70;;;;;;;;;;4975318;28;20489;-84
2022/03/21 07:22:34;;;;;;;109.50;59.03;;;;;;;;;;4958161;28;20959;-84
2022/03/21 07:25:01;;;;;;;426.02;227.98;;;;;;;;;;4956470;28;20185;-84
2022/03/21 07:27:28;;;;;;;448.92;158.20;;;;;;;;;;4955732;29;20255;-88
2022/03/21 07:29:55;;;;;;;99.55;69.63;;;;;;;;;;4955842;29;20247;-84
2022/03/21 07:32:23;;;;;;;326.50;132.45;;;;;;;;;;4955696;28;20219;-84
2022/03/21 07:34:51;;;;;;;34.17;31.63;;;;;;;;;;4967500;28;20195;-83
2022/03/21 07:37:19;;;;;;;238.60;151.18;;;;;;;;;;4974812;28;20446;-83
2022/03/21 07:39:47;;;;;;;58.20;38.43;;;;;;;;;;4975035;28;20598;-83
2022/03/21 07:42:16;;;;;;;34.63;31.87;;;;;;;;;;4975178;28;20531;-84
2022/03/21 07:47:28;;;;;;;36.33;33.10;;;;;;;;;;4974872;28;20206;-84
2022/03/21 07:49:57;;;;;;;34.77;32.07;;;;;;;;;;4975012;28;20421;-84
2022/03/21 07:52:25;;;;;;;34.90;32.10;;;;;;;;;;4974866;28;20414;-83
2022/03/21 07:54:53;;;;;;;35.17;32.37;;;;;;;;;;4974569;28;20805;-85
2022/03/21 07:57:20;;;;;;;32.30;29.90;;;;;;;;;;4974490;28;20742;-83
2022/03/21 07:59:48;;;;;;;35.37;32.67;;;;;;;;;;4974781;28;20842;-84
2022/03/21 08:02:15;;;;;;;34.30;31.57;;;;;;;;;;4974938;28;20762;-84
2022/03/21 08:04:42;;;;;;;34.80;32.00;;;;;;;;;;4974944;28;20514;-84
2022/03/21 08:07:11;;;;;;;34.67;32.07;;;;;;;;;;4974601;28;20847;-84
2022/03/21 08:09:39;;;;;;;33.30;30.73;;;;;;;;;;4974454;28;20496;-84
2022/03/21 08:12:07;;;;;;;35.87;33.07;;;;;;;;;;4957522;28;20425;-84
2022/03/21 08:14:35;;;;;;;34.20;31.53;;;;;;;;;;4974294;28;20451;-83
2022/03/21 08:17:02;;;;;;;34.80;31.90;;;;;;;;;;4974674;28;20418;-85
2022/03/21 08:19:30;;;;;;;34.90;32.00;;;;;;;;;;4974520;28;20461;-85
2022/03/21 08:21:57;;;;;;;35.60;32.77;;;;;;;;;;4974681;28;20457;-85
2022/03/21 08:24:26;;;;;;;35.10;32.40;;;;;;;;;;4974859;28;20458;-85
2022/03/21 08:26:54;;;;;;;33.20;30.60;;;;;;;;;;4974721;28;20453;-85
2022/03/21 08:29:21;;;;;;;35.30;32.60;;;;;;;;;;4974437;28;21048;-85
2022/03/21 08:31:49;;;;;;;33.93;31.43;;;;;;;;;;4974238;28;20750;-85
2022/03/21 08:34:16;;;;;;;34.60;31.73;;;;;;;;;;4974337;28;20418;-85
2022/03/21 08:36:45;;;;;;;34.83;32.13;;;;;;;;;;4974142;28;20440;-84
2022/03/21 08:39:12;;;;;;;35.43;32.53;;;;;;;;;;4974118;28;20788;-84
2022/03/21 08:41:41;;;;;;;34.47;31.77;;;;;;;;;;4974454;28;20473;-84
2022/03/21 08:44:08;;;;;;;35.17;32.47;;;;;;;;;;4974089;28;20892;-84
2022/03/21 08:46:36;;;;;;;33.97;31.37;;;;;;;;;;4974363;28;20566;-83
2022/03/21 08:51:48;;;;;;;34.77;32.13;;;;;;;;;;4974170;28;20425;-83
2022/03/21 08:54:15;;;;;;;35.17;32.50;;;;;;;;;;4973966;28;20418;-84
2022/03/21 08:56:44;;;;;;;35.93;33.03;;;;;;;;;;4973836;28;20451;-83
2022/03/21 08:59:11;;;;;;;35.47;32.70;;;;;;;;;;4973794;28;20410;-83
2022/03/21 09:01:40;;;;;;;37.90;34.60;;;;;;;;;;4973752;28;20457;-84
2022/03/21 09:04:08;;;;;;;35.57;32.77;;;;;;;;;;4974273;28;20455;-83
2022/03/21 09:06:36;;;;;;;35.10;32.33;;;;;;;;;;4973991;28;20472;-82
2022/03/21 09:09:03;;;;;;;36.30;33.37;;;;;;;;;;4973865;28;21004;-83
2022/03/21 09:11:30;;;;;;;36.67;33.87;;;;;;;;;;4972805;28;20906;-81
2022/03/21 09:13:59;;;;;;;37.30;34.30;;;;;;;;;;4973860;28;20439;-83
2022/03/21 09:16:26;;;;;;;36.07;33.33;;;;;;;;;;4974630;28;20829;-82
2022/03/21 09:18:54;;;;;;;34.57;32.07;;;;;;;;;;4973856;28;20445;-83
2022/03/21 09:21:21;;;;;;;35.53;32.70;;;;;;;;;;4973690;28;20465;-82
2022/03/21 09:23:50;;;;;;;36.10;33.30;;;;;;;;;;4973748;28;20426;-84
2022/03/21 09:26:17;;;;;;;35.23;32.60;;;;;;;;;;4973493;28;20533;-84
2022/03/21 09:28:44;;;;;;;37.40;34.00;;;;;;;;;;4973886;28;20790;-83
2022/03/21 09:31:14;;;;;;;36.53;33.63;;;;;;;;;;4973600;28;20892;-83
2022/03/21 09:33:42;;;;;;;36.00;32.90;;;;;;;;;;4956587;28;20433;-83
2022/03/21 09:36:09;;;;;;;36.07;33.17;;;;;;;;;;4974376;28;20436;-83
2022/03/21 09:38:37;;;;;;;36.27;33.47;;;;;;;;;;4974284;28;20451;-88
2022/03/21 09:41:05;;;;;;;37.27;34.30;;;;;;;;;;4973709;28;20498;-85
2022/03/21 09:43:32;;;;;;;36.03;33.27;;;;;;;;;;4974372;28;20425;-85
2022/03/21 09:46:00;;;;;;;35.63;32.93;;;;;;;;;;4975786;28;20422;-84
2022/03/21 09:48:29;;;;;;;36.33;33.57;;;;;;;;;;4977331;28;20421;-85
2022/03/21 09:50:57;;;;;;;39.23;36.03;;;;;;;;;;4977465;28;20992;-85
2022/03/21 09:53:26;;;;;;;38.53;35.33;;;;;;;;;;4977218;28;20857;-84
2022/03/21 09:55:53;;;;;;;37.60;34.43;;;;;;;;;;4959640;28;20429;-84
2022/03/21 09:58:21;;;;;;;37.93;34.83;;;;;;;;;;4976769;28;20422;-84
2022/03/21 10:00:49;;;;;;;36.73;33.70;;;;;;;;;;4976780;28;20561;-83
2022/03/21 10:03:17;;;;;;;37.30;34.33;;;;;;;;;;4976883;28;20527;-82
2022/03/21 10:05:49;;;;;;;39.13;35.80;;;;;;;;;;4976778;28;20476;-84
2022/03/21 10:08:22;;;;;;;36.53;33.53;;;;;;;;;;4976861;28;20456;-84
2022/03/21 10:10:53;;;;;;;38.53;35.53;;;;;;;;;;4976686;28;20894;-83
2022/03/21 10:13:21;;;;;;;38.73;35.53;;;;;;;;;;4976483;28;20845;-85
2022/03/21 10:15:49;;;;;;;38.07;34.87;;;;;;;;;;4976496;28;20414;-83
2022/03/21 10:18:18;;;;;;;37.97;34.87;;;;;;;;;;4976435;28;20458;-84
2022/03/21 10:20:47;;;;;;;38.33;35.13;;;;;;;;;;4976206;28;20537;-83
2022/03/21 10:23:18;;;;;;;38.57;35.47;;;;;;;;;;4976617;28;20459;-83
2022/03/21 10:25:46;;;;;;;36.53;33.37;;;;;;;;;;4976369;28;20449;-84
2022/03/21 10:28:33;;;;;;;37.90;34.70;;;;;;;;;;4958866;28;20417;-84
2022/03/21 10:31:00;;;;;;;39.80;36.30;;;;;;;;;;4976142;28;20425;-84
2022/03/21 10:33:28;;;;;;;38.90;35.50;;;;;;;;;;4976410;28;20467;-83
2022/03/21 10:35:56;;;;;;;37.57;34.43;;;;;;;;;;4976435;28;20450;-83
2022/03/21 10:38:31;;;;;;;37.60;34.20;;;;;;;;;;4976330;28;20848;-82
2022/03/21 10:40:58;;;;;;;39.43;36.00;;;;;;;;;;4975913;28;20564;-84
2022/03/21 10:43:26;;;;;;;38.30;35.20;;;;;;;;;;4976076;28;20885;-83
2022/03/21 10:45:54;;;;;;;39.67;36.47;;;;;;;;;;4975966;28;20504;-83
2022/03/21 10:48:22;;;;;;;40.27;36.87;;;;;;;;;;4975914;28;20439;-83
2022/03/21 10:50:50;;;;;;;39.77;36.47;;;;;;;;;;4975996;28;20888;-83
2022/03/21 10:53:19;;;;;;;38.47;35.13;;;;;;;;;;4976332;28;20439;-84
2022/03/21 10:55:47;;;;;;;38.30;34.90;;;;;;;;;;4976117;28;20435;-84
2022/03/21 10:58:15;;;;;;;38.97;35.37;;;;;;;;;;4976221;28;20462;-84
2022/03/21 11:00:43;;;;;;;38.97;35.00;;;;;;;;;;4976557;28;20477;-84
2022/03/21 11:03:14;;;;;;;37.70;34.70;;;;;;;;;;4977354;28;20845;-86
2022/03/21 11:05:43;;;;;;;37.97;35.17;;;;;;;;;;4976425;28;20417;-83
2022/03/21 11:08:11;;;;;;;38.73;35.60;;;;;;;;;;4976884;28;20772;-83
2022/03/21 11:10:40;;;;;;;38.87;35.53;;;;;;;;;;4976511;28;20446;-83
2022/03/21 11:13:08;;;;;;;39.47;35.90;;;;;;;;;;4976435;28;20429;-84
2022/03/21 11:15:37;;;;;;;39.80;36.50;;;;;;;;;;4976994;28;20786;-83
2022/03/21 11:18:05;;;;;;;39.33;36.10;;;;;;;;;;4976166;28;20454;-83
2022/03/21 11:20:32;;;;;;;40.53;36.93;;;;;;;;;;4976914;28;20993;-82
2022/03/21 11:23:01;;;;;;;40.30;36.87;;;;;;;;;;4976887;28;20502;-83
2022/03/21 11:25:30;;;;;;;39.67;36.37;;;;;;;;;;4958544;28;20509;-84
2022/03/21 11:28:15;;;;;;;40.07;36.67;;;;;;;;;;4976150;28;20466;-83
2022/03/21 11:30:50;;;;;;;37.27;33.80;;;;;;;;;;4975967;28;20435;-83
2022/03/21 11:33:24;;;;;;;38.00;34.67;;;;;;;;;;4957935;28;20487;-84
2022/03/21 11:35:52;;;;;;;40.40;36.80;;;;;;;;;;4975442;28;20427;-83
2022/03/21 11:38:24;;;;;;;42.17;38.53;;;;;;;;;;4976095;28;20515;-84
2022/03/21 11:40:52;;;;;;;41.80;38.00;;;;;;;;;;4974870;28;20534;-84
2022/03/21 11:43:25;;;;;;;41.30;37.37;;;;;;;;;;4975813;28;20464;-81
2022/03/21 11:45:55;;;;;;;40.23;36.60;;;;;;;;;;4975316;28;20439;-83
2022/03/21 11:48:38;;;;;;;40.17;36.77;;;;;;;;;;4975276;28;20471;-83
2022/03/21 11:51:26;;;;;;;40.00;36.60;;;;;;;;;;4975305;28;20910;-83
2022/03/21 11:53:54;;;;;;;41.23;37.60;;;;;;;;;;4969228;28;20924;-83
2022/03/21 11:56:36;;;;;;;38.97;35.93;;;;;;;;;;4975279;28;20445;-83
2022/03/21 11:59:04;;;;;;;40.63;37.13;;;;;;;;;;4974244;28;20459;-82
2022/03/21 12:01:32;;;;;;;41.50;37.70;;;;;;;;;;4974999;28;20494;-84
2022/03/21 12:04:25;;;;;;;41.37;37.87;;;;;;;;;;4974880;28;20414;-82
2022/03/21 12:06:52;;;;;;;43.13;39.50;;;;;;;;;;4974555;28;20430;-83
2022/03/21 12:09:22;;;;;;;39.50;36.20;;;;;;;;;;4975038;28;20417;-82
2022/03/21 12:12:00;;;;;;;41.90;38.30;;;;;;;;;;4976053;28;20455;-82
2022/03/21 12:14:36;;;;;;;41.87;38.10;;;;;;;;;;4975667;28;20442;-83
2022/03/21 12:17:22;;;;;;;41.20;37.50;;;;;;;;;;4975191;28;20454;-84
2022/03/21 12:20:01;;;;;;;40.13;36.73;;;;;;;;;;4974477;28;20468;-84
2022/03/21 12:22:39;;;;;;;37.33;34.43;;;;;;;;;;4974646;28;20465;-83
2022/03/21 12:25:08;;;;;;;38.30;35.17;;;;;;;;;;4974055;28;20532;-83
2022/03/21 12:27:36;;;;;;;41.50;38.10;;;;;;;;;;4956767;28;20472;-83
2022/03/21 12:30:23;;;;;;;41.70;38.10;;;;;;;;;;4974314;28;21116;-84
2022/03/21 12:32:51;;;;;;;40.43;37.03;;;;;;;;;;4974454;28;20436;-82
2022/03/21 12:35:40;;;;;;;40.17;36.50;;;;;;;;;;4974543;28;20437;-83
2022/03/21 12:38:09;;;;;;;41.50;37.80;;;;;;;;;;4974251;28;20451;-83
2022/03/21 12:40:38;;;;;;;38.90;35.70;;;;;;;;;;4974477;28;20513;-83
2022/03/21 12:43:06;;;;;;;39.77;36.37;;;;;;;;;;4974155;28;20508;-84
2022/03/21 12:45:34;;;;;;;40.53;37.20;;;;;;;;;;4974337;28;20439;-83
2022/03/21 12:48:04;;;;;;;39.07;35.50;;;;;;;;;;4974383;28;20492;-83
2022/03/21 12:50:32;;;;;;;40.37;37.00;;;;;;;;;;4956697;28;20789;-83
2022/03/21 12:53:01;;;;;;;40.13;36.33;;;;;;;;;;4974150;28;20421;-83
2022/03/21 12:55:30;;;;;;;38.53;35.10;;;;;;;;;;4973856;28;20418;-83
2022/03/21 12:57:58;;;;;;;37.87;34.87;;;;;;;;;;4974145;28;20450;-83
2022/03/21 13:00:27;;;;;;;39.77;36.27;;;;;;;;;;4974312;28;20441;-83
2022/03/21 13:02:56;;;;;;;40.10;36.70;;;;;;;;;;4975142;28;20465;-82
2022/03/21 13:11:02;;;;;;;37.60;34.67;;;;;;;;;;4975154;28;20871;-82
2022/03/21 13:13:41;;;;;;;35.23;32.20;;;;;;;;;;4974266;28;20456;-83
2022/03/21 13:16:08;;;;;;;37.70;34.57;;;;;;;;;;4974199;28;20417;-84
2022/03/21 13:18:40;;;;;;;37.93;34.80;;;;;;;;;;4974078;28;20413;-82
2022/03/21 13:21:08;;;;;;;39.77;36.30;;;;;;;;;;4977336;28;20469;-83
2022/03/21 13:23:35;;;;;;;39.53;35.90;;;;;;;;;;4977890;28;20469;-83
2022/03/21 13:26:11;;;;;;;38.43;35.37;;;;;;;;;;4977750;28;20797;-83
2022/03/21 13:28:39;;;;;;;37.53;34.37;;;;;;;;;;4977119;28;20872;-83
2022/03/21 13:31:09;;;;;;;40.73;37.63;;;;;;;;;;4977932;28;20410;-84
2022/03/21 13:33:37;;;;;;;37.63;34.50;;;;;;;;;;4977814;28;20830;-83
2022/03/21 13:36:05;;;;;;;37.47;34.30;;;;;;;;;;4977679;28;20410;-84
2022/03/21 13:38:34;;;;;;;37.10;34.20;;;;;;;;;;4977856;28;20468;-88
2022/03/21 13:41:02;;;;;;;37.63;34.63;;;;;;;;;;4977463;28;20442;-83
2022/03/21 13:43:32;;;;;;;38.00;34.90;;;;;;;;;;4959883;28;20915;-83
2022/03/21 13:46:01;;;;;;;38.10;34.90;;;;;;;;;;4977281;28;20889;-82
2022/03/21 13:48:35;;;;;;;38.17;34.77;;;;;;;;;;4977493;28;20439;-81
2022/03/21 13:51:03;;;;;;;37.30;34.10;;;;;;;;;;4977201;28;20497;-81
2022/03/21 13:53:30;;;;;;;37.43;34.47;;;;;;;;;;4977185;28;20468;-81
2022/03/21 13:55:58;;;;;;;38.07;34.87;;;;;;;;;;4977228;28;20458;-83
2022/03/21 13:58:27;;;;;;;36.43;33.63;;;;;;;;;;4976872;28;20414;-82
2022/03/21 14:00:57;;;;;;;35.43;32.60;;;;;;;;;;4976918;28;20447;-83
2022/03/21 14:03:35;;;;;;;31.20;28.80;;;;;;;;;;4977098;28;20906;-82
2022/03/21 14:06:04;;;;;;;36.20;33.40;;;;;;;;;;4977660;28;20420;-82
2022/03/21 14:08:31;;;;;;;36.90;34.10;;;;;;;;;;4977730;28;20470;-82
2022/03/21 14:11:02;;;;;;;36.13;33.10;;;;;;;;;;4978844;28;20804;-83
2022/03/21 14:13:30;;;;;;;35.27;32.57;;;;;;;;;;4978490;28;20864;-83
2022/03/21 14:16:00;;;;;;;37.27;34.07;;;;;;;;;;4979078;28;20480;-82
2022/03/21 14:18:29;;;;;;;36.63;33.83;;;;;;;;;;4977929;28;20448;-82
2022/03/21 14:20:57;;;;;;;36.00;32.83;;;;;;;;;;4977300;28;20453;-82
2022/03/21 14:23:24;;;;;;;33.67;30.97;;;;;;;;;;4976986;28;20465;-82
2022/03/21 14:28:37;;;;;;;37.47;34.43;;;;;;;;;;4977095;28;20959;-83
2022/03/21 14:31:06;;;;;;;36.43;33.60;;;;;;;;;;4977028;28;20421;-81
2022/03/21 14:33:35;;;;;;;37.40;34.37;;;;;;;;;;4978347;28;20443;-83
2022/03/21 14:36:03;;;;;;;37.67;34.40;;;;;;;;;;4977968;28;20414;-83
2022/03/21 14:38:30;;;;;;;37.30;34.20;;;;;;;;;;4978275;28;20434;-80
2022/03/21 14:40:58;;;;;;;35.53;32.50;;;;;;;;;;4978133;28;20446;-82
2022/03/21 14:43:26;;;;;;;34.57;31.70;;;;;;;;;;4978067;28;20842;-82
2022/03/21 14:45:53;;;;;;;35.57;32.77;;;;;;;;;;4977402;28;20455;-82
2022/03/21 14:48:24;;;;;;;35.77;33.00;;;;;;;;;;4977115;28;20513;-82
2022/03/21 14:50:51;;;;;;;39.10;32.80;;;;;;;;;;4975213;28;20421;-82
2022/03/21 14:53:19;;;;;;;36.30;33.33;;;;;;;;;;4976102;28;20453;-82